createdAt,value
2019-06-07T00:00:40.533Z,4.00
2019-06-07T00:01:24.472Z,4.00
2019-06-07T00:02:08.377Z,5.00
2019-06-07T00:02:51.535Z,6.00
2019-06-07T00:03:37.450Z,5.00
2019-06-07T00:04:21.566Z,5.00
2019-06-07T00:05:07.669Z,5.00
2019-06-07T00:05:51.566Z,6.00
2019-06-07T00:06:34.903Z,6.00
2019-06-07T00:07:21.832Z,6.00
2019-06-07T00:08:07.347Z,6.00
2019-06-07T00:08:49.074Z,5.60
2019-06-07T00:09:32.164Z,5.00
2019-06-07T00:10:34.970Z,6.00
2019-06-07T00:11:01.416Z,5.00
2019-06-07T00:11:44.379Z,5.40
2019-06-07T00:12:27.674Z,5.00
2019-06-07T00:13:12.886Z,5.80
2019-06-07T00:13:56.190Z,5.40
2019-06-07T00:14:39.539Z,5.00
2019-06-07T00:15:28.786Z,5.40
2019-06-07T00:16:08.739Z,5.00
2019-06-07T00:16:52.303Z,6.00
2019-06-07T00:17:35.454Z,4.80
2019-06-07T00:18:25.167Z,5.20
2019-06-07T00:19:04.223Z,5.00
2019-06-07T00:19:47.814Z,5.00
2019-06-07T00:20:30.632Z,5.00
2019-06-07T00:21:17.023Z,5.00
2019-06-07T00:22:17.645Z,6.00
2019-06-07T00:22:45.346Z,6.00
2019-06-07T00:23:29.054Z,6.75
2019-06-07T00:24:14.276Z,6.00
2019-06-07T00:24:57.518Z,5.00
2019-06-07T00:25:41.223Z,6.00
2019-06-07T00:26:24.652Z,5.00
2019-06-07T00:27:08.411Z,5.00
2019-06-07T00:27:51.782Z,5.40
2019-06-07T00:28:35.431Z,6.00
2019-06-07T00:29:19.565Z,5.00
2019-06-07T00:30:29.676Z,5.80
2019-06-07T00:30:51.985Z,5.00
2019-06-07T00:31:33.186Z,6.00
2019-06-07T00:32:19.990Z,7.00
2019-06-07T00:33:02.504Z,5.00
2019-06-07T00:33:45.530Z,6.00
2019-06-07T00:34:28.942Z,6.00
2019-06-07T00:35:15.476Z,6.00
2019-06-07T00:35:57.884Z,6.00
2019-06-07T00:36:41.874Z,6.00
2019-06-07T00:37:25.701Z,6.00
2019-06-07T00:38:09.402Z,5.00
2019-06-07T00:38:52.754Z,5.00
2019-06-07T00:39:36.277Z,6.00
2019-06-07T00:40:31.499Z,5.40
2019-06-07T00:41:07.274Z,5.00
2019-06-07T00:41:51.247Z,6.00
2019-06-07T00:42:34.546Z,6.00
2019-06-07T00:43:24.830Z,6.00
2019-06-07T00:44:03.611Z,6.00
2019-06-07T00:44:46.464Z,6.00
2019-06-07T00:45:29.804Z,6.00
2019-06-07T00:46:15.708Z,6.20
2019-06-07T00:46:57.637Z,6.00
2019-06-07T00:47:41.368Z,5.00
2019-06-07T00:48:32.172Z,6.00
2019-06-07T00:49:13.273Z,5.00
2019-06-07T00:49:55.615Z,6.80
2019-06-07T00:50:39.459Z,6.00
2019-06-07T00:51:24.052Z,5.00
2019-06-07T00:52:07.673Z,5.00
2019-06-07T00:53:14.397Z,7.00
2019-06-07T00:53:36.685Z,6.40
2019-06-07T00:54:22.451Z,7.00
2019-06-07T00:55:08.587Z,6.00
2019-06-07T00:55:51.679Z,6.40
2019-06-07T00:56:35.215Z,6.60
2019-06-07T00:57:21.532Z,5.60
2019-06-07T00:58:04.987Z,6.00
2019-06-07T00:59:09.829Z,5.80
2019-06-07T00:59:33.499Z,7.40
2019-06-07T01:00:18.327Z,7.00
2019-06-07T01:01:01.723Z,7.00
2019-06-07T01:01:44.894Z,6.00
2019-06-07T01:02:31.195Z,7.00
2019-06-07T01:03:14.855Z,6.40
2019-06-07T01:03:58.487Z,6.00
2019-06-07T01:04:41.960Z,7.00
2019-06-07T01:05:30.950Z,7.00
2019-06-07T01:06:12.370Z,7.00
2019-06-07T01:06:56.107Z,6.40
2019-06-07T01:07:39.560Z,6.00
2019-06-07T01:08:27.721Z,5.80
2019-06-07T01:09:08.709Z,7.00
2019-06-07T01:09:52.835Z,7.00
2019-06-07T01:10:53.149Z,6.00
2019-06-07T01:11:23.561Z,7.00
2019-06-07T01:12:07.036Z,7.00
2019-06-07T01:12:50.667Z,6.00
2019-06-07T01:13:33.897Z,7.00
2019-06-07T01:14:19.379Z,6.00
2019-06-07T01:15:03.405Z,6.00
2019-06-07T01:15:46.559Z,7.00
2019-06-07T01:16:53.057Z,6.00
2019-06-07T01:17:39.679Z,7.00
2019-06-07T01:18:37.454Z,7.00
2019-06-07T01:18:55.447Z,7.00
2019-06-07T01:19:39.179Z,7.00
2019-06-07T01:20:24.370Z,5.00
2019-06-07T01:21:08.117Z,6.60
2019-06-07T01:21:51.479Z,7.00
2019-06-07T01:22:34.627Z,7.00
2019-06-07T01:23:57.811Z,7.00
2019-06-07T01:24:11.871Z,7.00
2019-06-07T01:24:48.845Z,7.00
2019-06-07T01:25:32.731Z,7.00
2019-06-07T01:26:18.952Z,6.40
2019-06-07T01:27:00.607Z,8.00
2019-06-07T01:27:44.592Z,6.00
2019-06-07T01:28:30.200Z,7.00
2019-06-07T01:29:13.152Z,7.00
2019-06-07T01:29:56.581Z,7.00
2019-06-07T01:30:40.243Z,7.00
2019-06-07T01:31:27.539Z,7.00
2019-06-07T01:32:09.179Z,6.20
2019-06-07T01:32:52.987Z,6.00
2019-06-07T01:33:50.486Z,6.40
2019-06-07T01:34:23.806Z,6.00
2019-06-07T01:35:07.423Z,6.00
2019-06-07T01:35:50.294Z,6.00
2019-06-07T01:36:33.858Z,6.00
2019-06-07T01:37:20.026Z,7.00
2019-06-07T01:38:02.160Z,6.00
2019-06-07T01:38:46.330Z,7.00
2019-06-07T01:39:31.806Z,7.00
2019-06-07T01:40:16.993Z,6.00
2019-06-07T01:40:59.935Z,6.20
2019-06-07T01:41:43.741Z,6.60
2019-06-07T01:42:29.452Z,6.00
2019-06-07T01:43:12.447Z,6.60
2019-06-07T01:43:56.019Z,7.00
2019-06-07T01:44:38.932Z,7.00
2019-06-07T01:45:23.634Z,7.25
2019-06-07T01:46:07.438Z,8.00
2019-06-07T01:46:50.305Z,6.00
2019-06-07T01:47:34.043Z,7.00
2019-06-07T01:48:21.600Z,7.00
2019-06-07T01:49:02.953Z,6.80
2019-06-07T01:49:46.751Z,6.00
2019-06-07T01:50:30.470Z,6.00
2019-06-07T01:51:14.531Z,6.00
2019-06-07T01:51:58.323Z,6.00
2019-06-07T01:52:41.874Z,6.40
2019-06-07T01:53:26.429Z,7.00
2019-06-07T01:54:49.268Z,6.40
2019-06-07T01:54:58.809Z,7.00
2019-06-07T01:55:41.165Z,8.00
2019-06-07T01:56:28.264Z,7.00
2019-06-07T01:57:30.524Z,7.00
2019-06-07T01:57:54.682Z,7.00
2019-06-07T01:58:38.138Z,5.00
2019-06-07T01:59:23.252Z,8.00
2019-06-07T02:00:06.865Z,7.00
2019-06-07T02:00:50.277Z,7.40
2019-06-07T02:01:35.280Z,6.00
2019-06-07T02:02:20.057Z,7.00
2019-06-07T02:03:03.645Z,6.00
2019-06-07T02:03:47.373Z,6.00
2019-06-07T02:04:33.180Z,7.00
2019-06-07T02:05:15.789Z,6.40
2019-06-07T02:05:59.252Z,6.00
2019-06-07T02:06:42.750Z,7.00
2019-06-07T02:07:30.348Z,7.00
2019-06-07T02:08:11.565Z,6.60
2019-06-07T02:08:54.324Z,6.60
2019-06-07T02:09:37.678Z,8.00
2019-06-07T02:10:24.683Z,7.00
2019-06-07T02:11:06.075Z,6.00
2019-06-07T02:11:49.597Z,6.80
2019-06-07T02:12:42.443Z,7.00
2019-06-07T02:13:18.776Z,8.00
2019-06-07T02:14:02.012Z,7.20
2019-06-07T02:14:45.518Z,6.80
2019-06-07T02:15:36.160Z,8.00
2019-06-07T02:16:15.282Z,8.00
2019-06-07T02:16:59.376Z,7.00
2019-06-07T02:17:42.640Z,7.40
2019-06-07T02:18:28.423Z,7.00
2019-06-07T02:19:11.087Z,8.00
2019-06-07T02:19:54.362Z,7.00
2019-06-07T02:20:38.316Z,8.00
2019-06-07T02:21:24.715Z,7.00
2019-06-07T02:22:07.225Z,8.00
2019-06-07T02:22:50.937Z,7.00
2019-06-07T02:23:34.494Z,7.00
2019-06-07T02:24:17.511Z,6.40
2019-06-07T02:25:50.406Z,8.00
2019-06-07T02:26:32.640Z,8.00
2019-06-07T02:27:16.451Z,7.00
2019-06-07T02:28:25.837Z,7.00
2019-06-07T02:28:45.811Z,8.00
2019-06-07T02:29:31.897Z,6.50
2019-06-07T02:31:00.768Z,7.60
2019-06-07T02:31:44.710Z,8.00
2019-06-07T02:32:31.735Z,7.00
2019-06-07T02:33:14.752Z,7.50
2019-06-07T02:33:58.422Z,7.00
2019-06-07T02:34:42.099Z,7.00
2019-06-07T02:35:30.886Z,6.60
2019-06-07T02:36:11.122Z,7.60
2019-06-07T02:36:55.250Z,7.00
2019-06-07T02:37:38.344Z,8.00
2019-06-07T02:38:23.156Z,7.00
2019-06-07T02:39:08.225Z,7.60
2019-06-07T02:39:50.874Z,7.20
2019-06-07T02:40:37.500Z,7.00
2019-06-07T02:41:22.935Z,8.00
2019-06-07T02:42:05.113Z,8.00
2019-06-07T02:42:48.936Z,9.00
2019-06-07T02:43:36.693Z,8.00
2019-06-07T02:44:18.271Z,8.00
2019-06-07T02:45:02.215Z,7.20
2019-06-07T02:45:45.779Z,7.00
2019-06-07T02:46:36.363Z,7.25
2019-06-07T02:47:14.064Z,8.00
2019-06-07T02:47:57.595Z,7.00
2019-06-07T02:48:40.730Z,8.00
2019-06-07T02:49:28.260Z,7.00
2019-06-07T02:50:12.929Z,8.00
2019-06-07T02:50:55.848Z,7.00
2019-06-07T02:51:41.557Z,7.40
2019-06-07T02:52:29.342Z,7.60
2019-06-07T02:53:09.986Z,8.00
2019-06-07T02:53:53.583Z,8.00
2019-06-07T02:54:40.482Z,7.20
2019-06-07T02:55:24.886Z,7.00
2019-06-07T02:56:58.727Z,7.00
2019-06-07T02:57:41.512Z,8.00
2019-06-07T02:58:26.191Z,8.00
2019-06-07T02:59:10.430Z,7.00
2019-06-07T03:00:06.526Z,6.60
2019-06-07T03:01:06.883Z,7.80
2019-06-07T03:01:39.463Z,7.00
2019-06-07T03:02:17.907Z,6.40
2019-06-07T03:03:01.589Z,9.00
2019-06-07T03:03:45.380Z,9.75
2019-06-07T03:04:29.510Z,7.00
2019-06-07T03:05:14.597Z,8.67
2019-06-07T03:05:58.309Z,7.00
2019-06-07T03:06:43.777Z,6.40
2019-06-07T03:07:28.299Z,8.00
2019-06-07T03:08:14.157Z,9.00
2019-06-07T03:08:56.855Z,7.00
2019-06-07T03:09:40.886Z,7.00
2019-06-07T03:10:28.131Z,8.00
2019-06-07T03:11:09.207Z,8.00
2019-06-07T03:11:52.730Z,9.00
2019-06-07T03:12:39.246Z,7.40
2019-06-07T03:13:22.342Z,7.00
2019-06-07T03:14:06.035Z,7.00
2019-06-07T03:14:49.925Z,8.00
2019-06-07T03:15:44.649Z,8.00
2019-06-07T03:16:19.982Z,7.80
2019-06-07T03:17:21.150Z,9.00
2019-06-07T03:18:08.951Z,7.80
2019-06-07T03:18:56.041Z,8.00
2019-06-07T03:19:40.811Z,6.40
2019-06-07T03:20:27.398Z,7.00
2019-06-07T03:21:15.594Z,7.20
2019-06-07T03:21:58.810Z,7.60
2019-06-07T03:22:43.439Z,7.00
2019-06-07T03:23:29.998Z,7.00
2019-06-07T03:24:14.034Z,8.00
2019-06-07T03:24:57.198Z,7.00
2019-06-07T03:25:40.981Z,7.00
2019-06-07T03:26:27.439Z,7.00
2019-06-07T03:27:33.943Z,7.00
2019-06-07T03:27:56.343Z,7.00
2019-06-07T03:28:39.574Z,7.00
2019-06-07T03:29:23.419Z,7.40
2019-06-07T03:30:36.249Z,7.80
2019-06-07T03:31:01.955Z,8.00
2019-06-07T03:31:41.642Z,7.20
2019-06-07T03:32:22.452Z,8.00
2019-06-07T03:33:05.379Z,9.00
2019-06-07T03:33:48.966Z,8.00
2019-06-07T03:34:39.219Z,8.00
2019-06-07T03:35:17.544Z,7.40
2019-06-07T03:36:13.053Z,7.20
2019-06-07T03:36:46.336Z,8.00
2019-06-07T03:37:30.689Z,8.00
2019-06-07T03:38:14.592Z,8.00
2019-06-07T03:38:58.815Z,7.00
2019-06-07T03:39:42.613Z,8.00
2019-06-07T03:40:26.693Z,8.00
2019-06-07T03:41:10.400Z,7.00
2019-06-07T03:42:05.615Z,7.00
2019-06-07T03:42:40.137Z,7.00
2019-06-07T03:43:23.729Z,7.25
2019-06-07T03:44:07.012Z,7.00
2019-06-07T03:44:50.468Z,8.00
2019-06-07T03:45:37.914Z,7.00
2019-06-07T03:46:19.242Z,7.00
2019-06-07T03:47:03.147Z,8.00
2019-06-07T03:47:47.174Z,6.40
2019-06-07T03:48:32.257Z,8.00
2019-06-07T03:49:15.395Z,8.00
2019-06-07T03:49:58.664Z,7.00
2019-06-07T03:50:42.562Z,7.00
2019-06-07T03:51:27.405Z,8.00
2019-06-07T03:52:12.039Z,8.00
2019-06-07T03:52:55.160Z,7.00
2019-06-07T03:53:40.827Z,7.00
2019-06-07T03:54:24.486Z,6.00
2019-06-07T03:55:07.500Z,6.20
2019-06-07T03:55:51.045Z,7.40
2019-06-07T03:56:36.039Z,7.00
2019-06-07T03:57:19.878Z,7.00
2019-06-07T03:58:31.566Z,7.00
2019-06-07T03:58:50.439Z,6.60
2019-06-07T03:59:38.664Z,6.20
2019-06-07T04:00:19.145Z,6.40
2019-06-07T04:01:02.893Z,8.00
2019-06-07T04:01:45.986Z,7.00
2019-06-07T04:02:30.371Z,7.75
2019-06-07T04:03:32.822Z,7.00
2019-06-07T04:03:59.454Z,7.00
2019-06-07T04:04:43.104Z,8.40
2019-06-07T04:05:28.246Z,7.00
2019-06-07T04:06:11.809Z,8.00
2019-06-07T04:06:55.407Z,7.40
2019-06-07T04:07:44.126Z,8.00
2019-06-07T04:08:24.830Z,7.25
2019-06-07T04:09:09.016Z,7.80
2019-06-07T04:09:52.424Z,7.00
2019-06-07T04:10:53.404Z,7.40
2019-06-07T04:11:20.847Z,8.00
2019-06-07T04:12:04.231Z,7.00
2019-06-07T04:12:47.236Z,8.00
2019-06-07T04:13:34.810Z,7.00
2019-06-07T04:14:15.839Z,7.00
2019-06-07T04:14:58.561Z,8.00
2019-06-07T04:15:42.405Z,7.40
2019-06-07T04:16:26.127Z,7.20
2019-06-07T04:17:08.912Z,8.60
2019-06-07T04:18:01.941Z,8.00
2019-06-07T04:18:40.893Z,7.00
2019-06-07T04:19:22.243Z,8.00
2019-06-07T04:20:09.531Z,10.00
2019-06-07T04:20:52.766Z,8.20
2019-06-07T04:21:39.527Z,8.00
2019-06-07T04:22:21.994Z,8.00
2019-06-07T04:23:25.063Z,8.00
2019-06-07T04:23:50.955Z,8.00
2019-06-07T04:24:38.488Z,8.00
2019-06-07T04:25:19.485Z,7.00
2019-06-07T04:26:02.633Z,8.00
2019-06-07T04:26:46.943Z,8.00
2019-06-07T04:27:30.669Z,7.00
2019-06-07T04:28:14.265Z,8.00
2019-06-07T04:30:05.942Z,8.20
2019-06-07T04:30:44.758Z,9.00
2019-06-07T04:31:28.397Z,8.00
2019-06-07T04:32:11.908Z,8.00
2019-06-07T04:32:55.119Z,9.00
2019-06-07T04:33:41.308Z,7.60
2019-06-07T04:34:24.260Z,9.00
2019-06-07T04:35:07.222Z,7.00
2019-06-07T04:35:50.739Z,8.80
2019-06-07T04:36:45.586Z,9.00
2019-06-07T04:37:19.106Z,8.00
2019-06-07T04:38:03.301Z,8.20
2019-06-07T04:38:47.084Z,8.20
2019-06-07T04:39:33.591Z,8.80
2019-06-07T04:40:15.235Z,9.00
2019-06-07T04:40:59.013Z,8.00
2019-06-07T04:41:42.332Z,8.00
2019-06-07T04:42:26.293Z,9.00
2019-06-07T04:43:10.305Z,8.00
2019-06-07T04:43:53.200Z,9.00
2019-06-07T04:44:39.290Z,9.20
2019-06-07T04:45:33.628Z,9.00
2019-06-07T04:46:07.061Z,7.00
2019-06-07T04:46:51.517Z,8.60
2019-06-07T04:47:37.251Z,8.50
2019-06-07T04:48:21.553Z,8.00
2019-06-07T04:49:05.195Z,8.80
2019-06-07T04:49:49.754Z,9.00
2019-06-07T04:50:35.397Z,9.00
2019-06-07T04:51:18.194Z,9.00
2019-06-07T04:52:01.672Z,9.00
2019-06-07T04:52:45.726Z,8.00
2019-06-07T04:53:30.847Z,9.00
2019-06-07T04:54:14.911Z,8.00
2019-06-07T04:54:57.893Z,9.00
2019-06-07T04:55:41.943Z,8.00
2019-06-07T04:56:25.830Z,9.00
2019-06-07T04:57:08.685Z,7.80
2019-06-07T04:57:52.349Z,8.00
2019-06-07T04:58:38.154Z,9.00
2019-06-07T05:00:00.772Z,9.00
2019-06-07T05:00:46.668Z,7.00
2019-06-07T05:00:58.966Z,8.60
2019-06-07T05:01:41.409Z,8.00
2019-06-07T05:02:22.533Z,7.00
2019-06-07T05:03:06.561Z,8.80
2019-06-07T05:03:49.694Z,5.60
2019-06-07T05:04:34.975Z,6.00
2019-06-07T05:05:18.288Z,7.00
2019-06-07T05:06:01.491Z,6.00
2019-06-07T05:06:44.865Z,6.00
2019-06-07T05:07:30.966Z,5.00
2019-06-07T05:08:27.616Z,5.00
2019-06-07T05:09:00.179Z,9.00
2019-06-07T05:09:43.864Z,9.00
2019-06-07T05:10:26.778Z,8.00
2019-06-07T05:11:10.803Z,10.00
2019-06-07T05:11:54.644Z,11.00
2019-06-07T05:12:40.475Z,12.40
2019-06-07T05:13:23.020Z,13.00
2019-06-07T05:14:06.486Z,10.40
2019-06-07T05:14:49.631Z,9.60
2019-06-07T05:15:34.591Z,9.50
2019-06-07T05:16:19.225Z,14.20
2019-06-07T05:17:02.231Z,13.00
2019-06-07T05:17:45.778Z,14.00
2019-06-07T05:18:29.666Z,14.00
2019-06-07T05:19:12.381Z,14.00
2019-06-07T05:19:55.953Z,14.00
2019-06-07T05:20:41.499Z,13.20
2019-06-07T05:21:24.585Z,15.00
2019-06-07T05:22:08.148Z,13.00
2019-06-07T05:22:51.844Z,15.00
2019-06-07T05:24:19.543Z,12.40
2019-06-07T05:25:03.033Z,13.00
2019-06-07T05:25:46.358Z,13.00
2019-06-07T05:26:30.496Z,14.00
2019-06-07T05:27:15.094Z,14.00
2019-06-07T05:27:57.908Z,14.00
2019-06-07T05:28:43.062Z,15.00
2019-06-07T05:29:26.759Z,14.00
2019-06-07T05:30:36.520Z,13.40
2019-06-07T05:31:04.793Z,13.00
2019-06-07T05:31:44.960Z,13.20
2019-06-07T05:32:24.990Z,13.00
2019-06-07T05:33:08.970Z,13.80
2019-06-07T05:33:52.515Z,12.00
2019-06-07T05:34:37.004Z,13.40
2019-06-07T05:35:20.921Z,14.00
2019-06-07T05:36:04.557Z,13.80
2019-06-07T05:37:08.479Z,14.00
2019-06-07T05:37:33.828Z,13.00
2019-06-07T05:38:18.043Z,13.00
2019-06-07T05:39:01.130Z,13.40
2019-06-07T05:39:46.486Z,14.00
2019-06-07T05:40:36.647Z,13.00
2019-06-07T05:41:19.940Z,12.20
2019-06-07T05:42:03.722Z,13.00
2019-06-07T05:42:47.261Z,14.00
2019-06-07T05:43:35.030Z,12.00
2019-06-07T05:44:15.986Z,16.00
2019-06-07T05:44:59.528Z,15.00
2019-06-07T05:45:46.452Z,15.00
2019-06-07T05:46:27.699Z,14.60
2019-06-07T05:47:11.424Z,13.60
2019-06-07T05:47:54.956Z,13.00
2019-06-07T05:48:41.705Z,14.00
2019-06-07T05:49:23.790Z,13.00
2019-06-07T05:50:37.893Z,14.20
2019-06-07T05:50:56.869Z,12.00
2019-06-07T05:51:41.596Z,14.00
2019-06-07T05:52:22.058Z,13.75
2019-06-07T05:53:06.472Z,13.00
2019-06-07T05:53:50.157Z,12.00
2019-06-07T05:54:35.110Z,12.00
2019-06-07T05:55:18.910Z,13.00
2019-06-07T05:56:02.744Z,11.60
2019-06-07T05:56:46.158Z,13.80
2019-06-07T05:57:29.609Z,13.50
2019-06-07T05:58:12.826Z,14.00
2019-06-07T05:58:55.870Z,12.80
2019-06-07T05:59:43.484Z,13.00
2019-06-07T06:00:25.255Z,13.00
2019-06-07T06:01:42.102Z,13.20
2019-06-07T06:02:02.639Z,14.00
2019-06-07T06:02:56.756Z,11.40
2019-06-07T06:03:24.182Z,12.60
2019-06-07T06:04:07.848Z,13.00
2019-06-07T06:04:51.987Z,13.00
2019-06-07T06:05:41.613Z,13.00
2019-06-07T06:06:20.463Z,14.00
2019-06-07T06:07:03.832Z,14.60
2019-06-07T06:07:50.527Z,12.00
2019-06-07T06:08:36.584Z,12.00
2019-06-07T06:09:18.936Z,14.00
2019-06-07T06:10:01.992Z,14.00
2019-06-07T06:10:48.655Z,13.00
2019-06-07T06:11:45.621Z,12.00
2019-06-07T06:12:33.385Z,12.40
2019-06-07T06:13:01.151Z,14.40
2019-06-07T06:14:05.665Z,12.40
2019-06-07T06:14:30.562Z,13.00
2019-06-07T06:15:15.414Z,13.00
2019-06-07T06:16:02.124Z,13.40
2019-06-07T06:16:47.971Z,13.00
2019-06-07T06:17:29.627Z,12.75
2019-06-07T06:18:12.912Z,12.80
2019-06-07T06:18:56.061Z,12.00
2019-06-07T06:19:40.658Z,13.00
2019-06-07T06:20:32.603Z,11.00
2019-06-07T06:21:19.355Z,12.00
2019-06-07T06:21:55.355Z,10.00
2019-06-07T06:22:41.616Z,12.00
2019-06-07T06:23:24.394Z,11.00
2019-06-07T06:24:08.062Z,10.00
2019-06-07T06:25:29.798Z,10.00
2019-06-07T06:25:38.628Z,10.00
2019-06-07T06:26:22.809Z,10.00
2019-06-07T06:27:28.417Z,10.60
2019-06-07T06:28:12.279Z,10.00
2019-06-07T06:28:37.215Z,10.00
2019-06-07T06:29:21.357Z,10.00
2019-06-07T06:30:07.404Z,10.80
2019-06-07T06:30:50.873Z,10.00
2019-06-07T06:31:34.285Z,11.25
2019-06-07T06:33:03.381Z,11.00
2019-06-07T06:33:49.554Z,10.80
2019-06-07T06:34:31.784Z,12.00
2019-06-07T06:35:15.565Z,9.00
2019-06-07T06:35:58.834Z,11.00
2019-06-07T06:36:45.193Z,10.60
2019-06-07T06:37:27.763Z,10.25
2019-06-07T06:38:11.013Z,12.00
2019-06-07T06:38:53.981Z,11.40
2019-06-07T06:39:37.541Z,12.00
2019-06-07T06:40:21.202Z,12.00
2019-06-07T06:41:15.054Z,13.00
2019-06-07T06:42:00.807Z,12.00
2019-06-07T06:42:35.266Z,11.50
2019-06-07T06:43:18.604Z,13.60
2019-06-07T06:44:02.048Z,11.40
2019-06-07T06:44:47.157Z,12.00
2019-06-07T06:45:30.240Z,12.00
2019-06-07T06:46:14.091Z,11.00
2019-06-07T06:46:58.498Z,11.00
2019-06-07T06:47:43.277Z,12.40
2019-06-07T06:48:27.467Z,9.00
2019-06-07T06:49:11.049Z,10.00
2019-06-07T06:49:54.724Z,10.00
2019-06-07T06:50:38.745Z,9.80
2019-06-07T06:51:22.402Z,10.00
2019-06-07T06:52:05.777Z,10.25
2019-06-07T06:52:54.214Z,10.00
2019-06-07T06:53:34.832Z,11.00
2019-06-07T06:54:37.319Z,10.80
2019-06-07T06:55:03.591Z,9.00
2019-06-07T06:55:49.410Z,11.00
2019-06-07T06:56:32.307Z,9.00
2019-06-07T06:57:19.962Z,9.00
2019-06-07T06:58:01.361Z,9.40
2019-06-07T06:59:39.671Z,10.60
2019-06-07T07:00:16.279Z,9.33
2019-06-07T07:01:06.352Z,10.00
2019-06-07T07:01:48.727Z,12.00
2019-06-07T07:02:30.539Z,11.00
2019-06-07T07:04:12.468Z,13.00
2019-06-07T07:04:48.684Z,10.20
2019-06-07T07:05:31.730Z,12.00
2019-06-07T07:06:26.052Z,13.00
2019-06-07T07:07:00.935Z,10.20
2019-06-07T07:07:45.409Z,11.00
2019-06-07T07:08:29.735Z,11.40
2019-06-07T07:09:13.294Z,12.00
2019-06-07T07:09:59.277Z,11.00
2019-06-07T07:10:48.655Z,11.60
2019-06-07T07:11:31.891Z,10.00
2019-06-07T07:12:15.212Z,12.40
2019-06-07T07:12:58.897Z,12.00
2019-06-07T07:13:44.463Z,11.20
2019-06-07T07:14:27.059Z,14.00
2019-06-07T07:15:19.031Z,12.00
2019-06-07T07:16:02.376Z,13.00
2019-06-07T07:16:49.611Z,13.00
2019-06-07T07:17:47.646Z,14.00
2019-06-07T07:18:16.688Z,11.60
2019-06-07T07:18:59.758Z,12.60
2019-06-07T07:19:46.605Z,14.20
2019-06-07T07:20:28.979Z,13.20
2019-06-07T07:21:12.064Z,12.00
2019-06-07T07:21:55.711Z,12.00
2019-06-07T07:22:39.759Z,13.00
2019-06-07T07:23:23.282Z,11.00
2019-06-07T07:24:21.048Z,11.00
2019-06-07T07:24:54.524Z,12.00
2019-06-07T07:25:36.929Z,14.20
2019-06-07T07:26:20.548Z,13.00
2019-06-07T07:27:04.455Z,13.50
2019-06-07T07:27:49.547Z,13.60
2019-06-07T07:28:32.602Z,13.00
2019-06-07T07:29:15.915Z,12.60
2019-06-07T07:30:34.820Z,14.60
2019-06-07T07:30:55.237Z,12.00
2019-06-07T07:31:39.015Z,14.00
2019-06-07T07:32:22.360Z,14.00
2019-06-07T07:33:07.136Z,15.00
2019-06-07T07:34:37.137Z,12.60
2019-06-07T07:35:21.044Z,16.00
2019-06-07T07:36:18.931Z,16.00
2019-06-07T07:36:52.922Z,16.00
2019-06-07T07:37:35.554Z,16.00
2019-06-07T07:38:19.411Z,17.00
2019-06-07T07:39:05.067Z,16.00
2019-06-07T07:39:51.190Z,15.00
2019-06-07T07:40:56.797Z,14.00
2019-06-07T07:41:18.315Z,15.00
2019-06-07T07:42:20.313Z,15.00
2019-06-07T07:42:50.436Z,15.00
2019-06-07T07:43:32.972Z,15.80
2019-06-07T07:44:16.503Z,16.50
2019-06-07T07:45:00.250Z,15.60
2019-06-07T07:45:46.759Z,15.00
2019-06-07T07:46:30.543Z,13.50
2019-06-07T07:47:15.324Z,14.40
2019-06-07T07:48:14.180Z,12.80
2019-06-07T07:48:44.039Z,14.60
2019-06-07T07:49:28.155Z,13.60
2019-06-07T07:50:11.131Z,12.00
2019-06-07T07:51:00.390Z,13.00
2019-06-07T07:51:39.595Z,15.50
2019-06-07T07:52:22.845Z,13.50
2019-06-07T07:53:06.744Z,11.40
2019-06-07T07:54:02.070Z,12.20
2019-06-07T07:54:35.868Z,13.00
2019-06-07T07:55:19.919Z,12.00
2019-06-07T07:56:04.206Z,13.00
2019-06-07T07:56:48.959Z,13.60
2019-06-07T07:57:32.710Z,11.50
2019-06-07T07:58:16.188Z,12.00
2019-06-07T07:59:01.998Z,13.00
2019-06-07T08:00:01.526Z,11.00
2019-06-07T08:00:52.479Z,12.00
2019-06-07T08:01:15.354Z,13.40
2019-06-07T08:01:59.218Z,11.00
2019-06-07T08:02:42.848Z,12.00
2019-06-07T08:03:25.832Z,12.80
2019-06-07T08:04:09.415Z,11.00
2019-06-07T08:05:20.663Z,11.00
2019-06-07T08:05:42.873Z,12.60
2019-06-07T08:06:24.207Z,12.00
2019-06-07T08:07:07.910Z,10.00
2019-06-07T08:07:55.441Z,11.00
2019-06-07T08:08:36.561Z,11.00
2019-06-07T08:09:19.747Z,10.00
2019-06-07T08:10:04.354Z,10.00
2019-06-07T08:10:51.987Z,11.00
2019-06-07T08:11:34.032Z,10.00
2019-06-07T08:12:16.666Z,11.60
2019-06-07T08:13:22.127Z,10.00
2019-06-07T08:13:45.739Z,11.00
2019-06-07T08:14:28.990Z,9.60
2019-06-07T08:15:12.516Z,9.00
2019-06-07T08:15:58.764Z,9.60
2019-06-07T08:16:40.449Z,9.00
2019-06-07T08:17:23.935Z,10.00
2019-06-07T08:18:07.468Z,11.00
2019-06-07T08:18:53.268Z,9.00
2019-06-07T08:19:35.854Z,11.00
2019-06-07T08:20:20.473Z,10.00
2019-06-07T08:21:21.593Z,9.00
2019-06-07T08:21:49.060Z,9.40
2019-06-07T08:22:32.608Z,9.00
2019-06-07T08:23:15.563Z,9.40
2019-06-07T08:24:04.137Z,9.00
2019-06-07T08:24:44.591Z,10.00
2019-06-07T08:25:27.617Z,10.00
2019-06-07T08:26:11.355Z,10.00
2019-06-07T08:27:18.294Z,10.00
2019-06-07T08:27:40.116Z,10.20
2019-06-07T08:28:24.222Z,9.00
2019-06-07T08:29:08.157Z,9.00
2019-06-07T08:30:14.354Z,9.00
2019-06-07T08:30:58.384Z,9.60
2019-06-07T08:31:22.596Z,8.00
2019-06-07T08:32:05.720Z,9.40
2019-06-07T08:32:54.945Z,9.00
2019-06-07T08:33:35.572Z,10.00
2019-06-07T08:34:18.572Z,9.00
2019-06-07T08:35:06.241Z,10.00
2019-06-07T08:36:41.754Z,9.00
2019-06-07T08:37:16.842Z,10.00
2019-06-07T08:38:24.845Z,9.00
2019-06-07T08:38:52.270Z,9.00
2019-06-07T08:39:32.303Z,9.00
2019-06-07T08:40:15.542Z,9.00
2019-06-07T08:41:10.752Z,10.75
2019-06-07T08:41:54.037Z,9.00
2019-06-07T08:42:36.806Z,9.00
2019-06-07T08:43:20.814Z,9.00
2019-06-07T08:44:08.603Z,9.60
2019-06-07T08:44:45.973Z,9.00
2019-06-07T08:45:29.557Z,8.00
2019-06-07T08:46:13.340Z,9.00
2019-06-07T08:47:18.418Z,9.00
2019-06-07T08:47:41.623Z,9.00
2019-06-07T08:48:30.231Z,9.00
2019-06-07T08:49:10.293Z,8.80
2019-06-07T08:49:56.733Z,9.00
2019-06-07T08:50:38.509Z,8.00
2019-06-07T08:51:22.313Z,9.00
2019-06-07T08:52:11.448Z,9.00
2019-06-07T08:52:54.775Z,9.00
2019-06-07T08:53:35.544Z,9.00
2019-06-07T08:54:22.873Z,7.00
2019-06-07T08:55:05.229Z,9.00
2019-06-07T08:55:49.013Z,8.00
2019-06-07T08:56:31.871Z,8.00
2019-06-07T08:57:21.213Z,9.00
2019-06-07T08:58:07.236Z,9.00
2019-06-07T08:58:46.157Z,9.00
2019-06-07T08:59:29.687Z,8.00
2019-06-07T09:01:04.360Z,8.00
2019-06-07T09:01:43.653Z,9.00
2019-06-07T09:02:27.429Z,9.00
2019-06-07T09:03:10.039Z,7.00
2019-06-07T09:04:00.175Z,7.00
2019-06-07T09:04:39.849Z,8.00
2019-06-07T09:05:22.799Z,9.00
2019-06-07T09:06:16.325Z,8.00
2019-06-07T09:07:07.365Z,8.00
2019-06-07T09:07:35.953Z,8.00
2019-06-07T09:08:30.005Z,8.80
2019-06-07T09:09:07.412Z,9.00
2019-06-07T09:09:50.876Z,7.00
2019-06-07T09:10:34.595Z,7.00
2019-06-07T09:11:18.883Z,9.00
2019-06-07T09:12:08.345Z,8.00
2019-06-07T09:12:47.412Z,8.00
2019-06-07T09:13:30.790Z,8.00
2019-06-07T09:14:14.147Z,8.00
2019-06-07T09:15:12.101Z,7.00
2019-06-07T09:15:43.890Z,8.20
2019-06-07T09:16:27.133Z,7.00
2019-06-07T09:17:12.294Z,6.00
2019-06-07T09:18:34.981Z,7.00
2019-06-07T09:18:44.028Z,7.00
2019-06-07T09:19:26.230Z,7.00
2019-06-07T09:20:30.555Z,7.60
2019-06-07T09:20:58.203Z,8.00
2019-06-07T09:21:41.735Z,8.00
2019-06-07T09:22:25.286Z,8.00
2019-06-07T09:23:16.286Z,8.00
2019-06-07T09:23:54.690Z,7.40
2019-06-07T09:24:40.205Z,8.00
2019-06-07T09:25:23.127Z,8.00
2019-06-07T09:26:17.567Z,6.00
2019-06-07T09:26:52.311Z,8.00
2019-06-07T09:27:35.507Z,8.00
2019-06-07T09:28:20.545Z,7.80
2019-06-07T09:29:08.688Z,7.00
2019-06-07T09:29:49.261Z,7.00
2019-06-07T09:30:43.987Z,7.00
2019-06-07T09:31:51.249Z,7.00
2019-06-07T09:32:18.187Z,7.00
2019-06-07T09:32:58.868Z,7.60
2019-06-07T09:33:43.279Z,8.00
2019-06-07T09:34:26.502Z,8.00
2019-06-07T09:35:16.470Z,6.40
2019-06-07T09:35:56.218Z,8.00
2019-06-07T09:36:41.021Z,8.00
2019-06-07T09:38:03.681Z,8.00
2019-06-07T09:38:23.747Z,7.60
2019-06-07T09:38:54.550Z,9.00
2019-06-07T09:39:38.023Z,8.40
2019-06-07T09:40:27.803Z,9.00
2019-06-07T09:41:09.859Z,7.00
2019-06-07T09:41:53.954Z,8.00
2019-06-07T09:42:37.741Z,8.00
2019-06-07T09:44:21.086Z,8.00
2019-06-07T09:44:52.130Z,8.00
2019-06-07T09:45:35.253Z,7.00
2019-06-07T09:46:19.479Z,7.00
2019-06-07T09:47:22.397Z,7.60
2019-06-07T09:47:48.274Z,7.20
2019-06-07T09:49:10.033Z,9.00
2019-06-07T09:49:30.591Z,7.00
2019-06-07T09:50:05.983Z,8.00
2019-06-07T09:50:47.743Z,7.20
2019-06-07T09:51:31.497Z,7.80
2019-06-07T09:52:14.329Z,9.00
2019-06-07T09:53:09.368Z,8.00
2019-06-07T09:53:43.154Z,8.00